Time,TemperatureF,DewpointF,PressureIn,WindDirection,WindDirectionDegrees,WindSpeedMPH,WindSpeedGustMPH,Humidity,HourlyPrecipIn,Conditions,Clouds,dailyrainin,SoftwareType,DateUTC
2013-07-30 00:00:00,76.3,47.4,30.17,ENE,68,1.1,1.1,36,0.00,,---,0.00,VWS V14.01,2013-07-30 06:00:00,
2013-07-30 00:01:00,76.3,47.4,30.17,ESE,112,1.8,1.8,36,0.00,,---,0.00,VWS V14.01,2013-07-30 06:01:00,
2013-07-30 00:02:00,76.3,48.1,30.17,East,90,1.1,1.1,37,0.00,,---,0.00,VWS V14.01,2013-07-30 06:02:00,
2013-07-30 00:03:00,76.3,47.4,30.17,East,90,0.4,1.1,36,0.00,,---,0.00,VWS V14.01,2013-07-30 06:03:00,
2013-07-30 00:04:00,76.3,48.1,30.17,East,90,1.1,1.1,37,0.00,,---,0.00,VWS V14.01,2013-07-30 06:04:00,
2013-07-30 00:05:00,76.1,47.2,30.17,East,90,0.4,1.1,36,0.00,,---,0.00,VWS V14.01,2013-07-30 06:05:00,
2013-07-30 00:06:00,76.1,48.0,30.17,ENE,68,1.1,1.1,37,0.00,,---,0.00,VWS V14.01,2013-07-30 06:06:00,
2013-07-30 00:07:00,76.0,47.9,30.17,ENE,68,0.7,0.7,37,0.00,,---,0.00,VWS V14.01,2013-07-30 06:07:00,
2013-07-30 00:08:00,76.0,47.9,30.17,ENE,68,1.1,1.1,37,0.00,,---,0.00,VWS V14.01,2013-07-30 06:08:00,
2013-07-30 00:09:00,76.0,47.9,30.17,ENE,68,0.4,1.1,37,0.00,,---,0.00,VWS V14.01,2013-07-30 06:09:00,
2013-07-30 00:10:00,75.8,47.7,30.17,NE,45,0.7,0.7,37,0.00,,---,0.00,VWS V14.01,2013-07-30 06:10:00,
2013-07-30 00:11:00,75.8,47.7,30.17,NNE,22,1.6,1.6,37,0.00,,---,0.00,VWS V14.01,2013-07-30 06:11:00,
2013-07-30 00:12:00,75.8,47.7,30.17,ENE,68,1.3,1.3,37,0.00,,---,0.00,VWS V14.01,2013-07-30 06:12:00,
2013-07-30 00:13:00,75.8,47.7,30.17,NE,45,1.1,1.3,37,0.00,,---,0.00,VWS V14.01,2013-07-30 06:13:00,
2013-07-30 00:14:00,75.6,48.2,30.17,ENE,68,2.5,2.5,38,0.00,,---,0.00,VWS V14.01,2013-07-30 06:14:00,
2013-07-30 00:15:00,75.8,47.7,30.17,NE,45,2.0,2.5,37,0.00,,---,0.00,VWS V14.01,2013-07-30 06:15:00,
2013-07-30 00:16:00,75.8,47.7,30.17,ENE,68,2.5,2.5,37,0.00,,---,0.00,VWS V14.01,2013-07-30 06:16:00,
2013-07-30 00:17:00,75.8,47.7,30.17,ENE,68,0.9,0.9,37,0.00,,---,0.00,VWS V14.01,2013-07-30 06:17:00,
2013-07-30 00:18:00,76.0,47.9,30.17,NE,45,1.1,1.1,37,0.00,,---,0.00,VWS V14.01,2013-07-30 06:18:00,
2013-07-30 00:19:00,76.0,47.9,30.17,NE,45,0.9,1.1,37,0.00,,---,0.00,VWS V14.01,2013-07-30 06:19:00,
2013-07-30 00:20:00,76.0,47.9,30.17,East,90,2.9,2.9,37,0.00,,---,0.00,VWS V14.01,2013-07-30 06:20:00,
2013-07-30 00:21:00,76.0,47.9,30.17,ENE,68,1.6,2.9,37,0.00,,---,0.00,VWS V14.01,2013-07-30 06:21:00,
2013-07-30 00:22:00,76.0,47.9,30.17,NE,45,1.1,1.1,37,0.00,,---,0.00,VWS V14.01,2013-07-30 06:22:00,
2013-07-30 00:23:00,76.0,47.9,30.17,ENE,68,1.3,1.3,37,0.00,,---,0.00,VWS V14.01,2013-07-30 06:23:00,
2013-07-30 00:24:00,76.0,47.9,30.17,ENE,68,1.1,1.3,37,0.00,,---,0.00,VWS V14.01,2013-07-30 06:24:00,
2013-07-30 00:25:00,76.0,47.9,30.17,ENE,68,1.6,1.6,37,0.00,,---,0.00,VWS V14.01,2013-07-30 06:25:00,
2013-07-30 00:26:00,76.0,47.9,30.17,ENE,68,0.9,1.6,37,0.00,,---,0.00,VWS V14.01,2013-07-30 06:26:00,
2013-07-30 00:27:00,75.8,47.7,30.17,ENE,68,0.9,0.9,37,0.00,,---,0.00,VWS V14.01,2013-07-30 06:27:00,
2013-07-30 00:28:00,75.8,47.7,30.17,NE,45,1.3,1.3,37,0.00,,---,0.00,VWS V14.01,2013-07-30 06:28:00,
2013-07-30 00:29:00,75.8,47.7,30.17,East,90,1.1,1.3,37,0.00,,---,0.00,VWS V14.01,2013-07-30 06:29:00,
2013-07-30 00:30:00,75.6,47.5,30.17,ENE,68,1.3,1.3,37,0.00,,---,0.00,VWS V14.01,2013-07-30 06:30:00,
2013-07-30 00:31:00,75.6,47.5,30.17,ENE,68,0.9,1.3,37,0.00,,---,0.00,VWS V14.01,2013-07-30 06:31:00,
2013-07-30 00:32:00,75.6,48.2,30.17,ENE,68,0.4,0.4,38,0.00,,---,0.00,VWS V14.01,2013-07-30 06:32:00,
2013-07-30 00:33:00,75.6,47.5,30.17,ENE,68,1.1,1.1,37,0.00,,---,0.00,VWS V14.01,2013-07-30 06:33:00,
2013-07-30 00:34:00,75.6,48.2,30.17,ENE,68,2.5,2.5,38,0.00,,---,0.00,VWS V14.01,2013-07-30 06:34:00,
2013-07-30 00:35:00,75.4,48.0,30.17,ENE,68,0.7,2.5,38,0.00,,---,0.00,VWS V14.01,2013-07-30 06:35:00,
2013-07-30 00:36:00,75.4,47.3,30.17,ENE,68,0.0,0.7,37,0.00,,---,0.00,VWS V14.01,2013-07-30 06:36:00,
2013-07-30 00:37:00,75.2,47.2,30.17,ENE,68,0.4,0.4,37,0.00,,---,0.00,VWS V14.01,2013-07-30 06:37:00,
2013-07-30 00:38:00,75.2,47.2,30.17,ENE,68,0.0,0.4,37,0.00,,---,0.00,VWS V14.01,2013-07-30 06:38:00,
2013-07-30 00:39:00,75.2,47.9,30.17,NNE,22,0.0,0.0,38,0.00,,---,0.00,VWS V14.01,2013-07-30 06:39:00,
2013-07-30 00:40:00,75.1,47.8,30.17,NE,45,0.0,0.0,38,0.00,,---,0.00,VWS V14.01,2013-07-30 06:40:00,
2013-07-30 00:41:00,75.1,47.8,30.17,NE,45,0.0,0.0,38,0.00,,---,0.00,VWS V14.01,2013-07-30 06:41:00,
2013-07-30 00:42:00,74.9,47.6,30.17,NE,45,0.4,0.4,38,0.00,,---,0.31,VWS V14.01,2013-07-30 06:42:00,
2013-07-30 00:43:00,74.9,47.6,30.17,NE,45,0.0,0.4,38,0.00,,---,0.00,VWS V14.01,2013-07-30 06:43:00,
2013-07-30 00:44:00,74.7,47.4,30.17,NE,45,0.2,0.2,38,0.00,,---,0.00,VWS V14.01,2013-07-30 06:44:00,
2013-07-30 00:45:00,74.7,47.4,30.17,NE,45,0.4,0.4,38,0.00,,---,0.00,VWS V14.01,2013-07-30 06:45:00,
2013-07-30 00:46:00,74.5,47.2,30.17,NE,45,0.0,0.4,38,0.00,,---,0.00,VWS V14.01,2013-07-30 06:46:00,
2013-07-30 00:47:00,74.5,47.2,30.17,NE,45,0.2,0.2,38,0.00,,---,0.00,VWS V14.01,2013-07-30 06:47:00,
2013-07-30 00:48:00,74.3,47.1,30.17,NE,45,0.0,0.2,38,0.00,,---,0.00,VWS V14.01,2013-07-30 06:48:00,
2013-07-30 00:49:00,74.3,47.1,30.17,NE,45,0.0,0.0,38,0.00,,---,0.00,VWS V14.01,2013-07-30 06:49:00,
2013-07-30 00:50:00,74.2,47.7,30.17,NE,45,0.4,0.4,39,0.00,,---,0.00,VWS V14.01,2013-07-30 06:50:00,
2013-07-30 00:51:00,74.2,47.7,30.17,NE,45,0.2,0.4,39,0.00,,---,0.00,VWS V14.01,2013-07-30 06:51:00,
2013-07-30 00:52:00,74.2,47.7,30.17,NE,45,0.2,0.2,39,0.00,,---,0.00,VWS V14.01,2013-07-30 06:52:00,
2013-07-30 00:53:00,74.0,47.5,30.17,NE,45,0.0,0.2,39,0.00,,---,0.00,VWS V14.01,2013-07-30 06:53:00,
2013-07-30 00:54:00,74.0,47.5,30.17,NE,45,0.4,0.4,39,0.00,,---,0.00,VWS V14.01,2013-07-30 06:54:00,
2013-07-30 00:55:00,74.0,47.5,30.17,NE,45,0.4,0.4,39,0.00,,---,0.00,VWS V14.01,2013-07-30 06:55:00,
2013-07-30 00:56:00,74.0,47.5,30.17,NE,45,0.7,0.7,39,0.00,,---,0.00,VWS V14.01,2013-07-30 06:56:00,
2013-07-30 00:57:00,74.0,47.5,30.17,NE,45,0.0,0.0,39,0.00,,---,0.00,VWS V14.01,2013-07-30 06:57:00,
2013-07-30 00:58:00,74.0,47.5,30.17,NE,45,0.0,0.0,39,0.00,,---,0.00,VWS V14.01,2013-07-30 06:58:00,
2013-07-30 00:59:00,73.8,48.0,30.17,NE,45,0.4,0.4,40,0.00,,---,0.00,VWS V14.01,2013-07-30 06:59:00,
2013-07-30 01:00:00,74.0,48.2,30.17,NE,45,0.4,0.4,40,0.00,,---,0.00,VWS V14.01,2013-07-30 07:00:00,
2013-07-30 01:01:00,73.8,48.0,30.17,East,90,1.1,1.1,40,0.00,,---,0.00,VWS V14.01,2013-07-30 07:01:00,
2013-07-30 01:02:00,73.8,48.0,30.17,East,90,0.4,0.4,40,0.00,,---,0.00,VWS V14.01,2013-07-30 07:02:00,
2013-07-30 01:03:00,74.0,48.2,30.17,East,90,1.1,1.1,40,0.00,,---,0.00,VWS V14.01,2013-07-30 07:03:00,
2013-07-30 01:04:00,73.8,48.0,30.17,ENE,68,1.3,1.3,40,0.00,,---,0.00,VWS V14.01,2013-07-30 07:04:00,
2013-07-30 01:05:00,74.0,48.2,30.17,ENE,68,1.3,1.3,40,0.00,,---,0.00,VWS V14.01,2013-07-30 07:05:00,
2013-07-30 01:06:00,74.0,48.2,30.17,East,90,1.1,1.3,40,0.00,,---,0.00,VWS V14.01,2013-07-30 07:06:00,
2013-07-30 01:07:00,74.0,48.2,30.17,East,90,0.7,0.7,40,0.00,,---,0.00,VWS V14.01,2013-07-30 07:07:00,
2013-07-30 01:08:00,74.0,48.2,30.17,East,90,0.4,0.7,40,0.00,,---,0.00,VWS V14.01,2013-07-30 07:08:00,
2013-07-30 01:09:00,74.0,48.2,30.17,East,90,0.7,0.7,40,0.00,,---,0.00,VWS V14.01,2013-07-30 07:09:00,
2013-07-30 01:10:00,73.8,48.0,30.17,ENE,68,0.4,0.7,40,0.00,,---,0.00,VWS V14.01,2013-07-30 07:10:00,
2013-07-30 01:11:00,73.8,48.0,30.17,ENE,68,0.4,0.4,40,0.00,,---,0.00,VWS V14.01,2013-07-30 07:11:00,
2013-07-30 01:12:00,73.8,48.0,30.17,North,0,1.1,1.1,40,0.00,,---,0.00,VWS V14.01,2013-07-30 07:12:00,
2013-07-30 01:13:00,73.8,48.0,30.17,North,0,1.1,1.1,40,0.00,,---,0.00,VWS V14.01,2013-07-30 07:13:00,
2013-07-30 01:14:00,73.8,48.0,30.17,NE,45,0.4,1.1,40,0.00,,---,0.00,VWS V14.01,2013-07-30 07:14:00,
2013-07-30 01:15:00,73.6,48.5,30.17,NE,45,0.0,0.4,41,0.00,,---,0.00,VWS V14.01,2013-07-30 07:15:00,
2013-07-30 01:16:00,73.4,47.6,30.17,NE,45,0.4,0.4,40,0.00,,---,0.00,VWS V14.01,2013-07-30 07:16:00,
2013-07-30 01:17:00,73.4,47.6,30.17,NE,45,0.4,0.4,40,0.00,,---,0.00,VWS V14.01,2013-07-30 07:17:00,
2013-07-30 01:18:00,73.4,48.3,30.17,NE,45,0.0,0.4,41,0.00,,---,0.00,VWS V14.01,2013-07-30 07:18:00,
2013-07-30 01:19:00,73.3,48.2,30.17,NE,45,0.4,0.4,41,0.00,,---,0.00,VWS V14.01,2013-07-30 07:19:00,
2013-07-30 01:20:00,73.3,48.2,30.17,NNE,22,0.4,0.4,41,0.00,,---,0.00,VWS V14.01,2013-07-30 07:20:00,
2013-07-30 01:21:00,73.1,48.0,30.17,NE,45,0.4,0.4,41,0.00,,---,0.00,VWS V14.01,2013-07-30 07:21:00,
2013-07-30 01:22:00,73.1,48.0,30.17,NE,45,0.4,0.4,41,0.00,,---,0.00,VWS V14.01,2013-07-30 07:22:00,
2013-07-30 01:23:00,73.1,48.0,30.17,NE,45,0.7,0.7,41,0.00,,---,0.00,VWS V14.01,2013-07-30 07:23:00,
2013-07-30 01:24:00,72.9,47.8,30.17,NE,45,0.2,0.7,41,0.00,,---,0.00,VWS V14.01,2013-07-30 07:24:00,
2013-07-30 01:25:00,72.9,47.8,30.17,NE,45,1.1,1.1,41,0.00,,---,0.00,VWS V14.01,2013-07-30 07:25:00,
2013-07-30 01:26:00,72.9,47.8,30.17,NE,45,0.4,1.1,41,0.00,,---,0.00,VWS V14.01,2013-07-30 07:26:00,
2013-07-30 01:27:00,72.9,47.8,30.17,ENE,68,1.3,1.3,41,0.00,,---,0.00,VWS V14.01,2013-07-30 07:27:00,
2013-07-30 01:28:00,72.9,47.8,30.17,ENE,68,1.3,1.3,41,0.00,,---,0.00,VWS V14.01,2013-07-30 07:28:00,
2013-07-30 01:29:00,72.9,47.8,30.17,ENE,68,0.4,0.9,41,0.00,,---,0.00,VWS V14.01,2013-07-30 07:29:00,
2013-07-30 01:30:00,72.9,47.8,30.17,ENE,68,1.1,1.1,41,0.00,,---,0.00,VWS V14.01,2013-07-30 07:30:00,
2013-07-30 01:31:00,72.9,47.8,30.17,ENE,68,1.1,1.1,41,0.00,,---,0.00,VWS V14.01,2013-07-30 07:31:00,
2013-07-30 01:32:00,72.9,47.8,30.17,NE,45,1.1,1.1,41,0.00,,---,0.00,VWS V14.01,2013-07-30 07:32:00,